Time;durP1;ratioP1;P1;durP2;ratioP2;P2;SDS_P1;SDS_P2;PMS_P1;PMS_P2;Temp;Humidity;BMP_temperature;BMP_pressure;BME280_temperature;BME280_humidity;BME280_pressure;Samples;Min_cycle;Max_cycle;Signal;HPM_P1;HPM_P2
2022/05/04 00:00:50;;;;;;;16.05;2.90;;;8.20;99.90;;;;;;4989256;28;92451;-72
2022/05/04 00:03:17;;;;;;;14.80;2.60;;;8.20;99.90;;;;;;5015004;28;20053;-72
2022/05/04 00:05:43;;;;;;;15.40;2.90;;;8.20;99.90;;;;;;4967628;28;175658;-73
2022/05/04 00:08:09;;;;;;;15.02;2.67;;;8.20;99.90;;;;;;4991284;28;20043;-73
2022/05/04 00:10:36;;;;;;;12.85;2.58;;;8.10;99.90;;;;;;4956215;28;219132;-74
2022/05/04 00:13:03;;;;;;;12.00;2.58;;;8.10;99.90;;;;;;5020100;28;20567;-73
2022/05/04 00:15:29;;;;;;;16.00;3.13;;;8.10;99.90;;;;;;4985903;28;142907;-73
2022/05/04 00:17:55;;;;;;;16.77;2.90;;;8.00;99.90;;;;;;5024097;28;20053;-74
2022/05/04 00:20:21;;;;;;;16.02;2.95;;;8.00;99.90;;;;;;4978643;28;38987;-74
2022/05/04 00:22:47;;;;;;;20.10;3.30;;;7.90;99.90;;;;;;4996129;28;20416;-74
2022/05/04 00:25:13;;;;;;;12.35;2.92;;;7.90;99.90;;;;;;4970917;28;136691;-73
2022/05/04 00:27:39;;;;;;;16.05;3.20;;;7.90;99.90;;;;;;4996234;28;20542;-73
2022/05/04 00:30:06;;;;;;;15.07;2.90;;;7.90;99.90;;;;;;4972849;28;112242;-74
2022/05/04 00:32:32;;;;;;;15.20;2.97;;;7.80;99.90;;;;;;4976009;28;20419;-73
2022/05/04 00:34:59;;;;;;;15.85;3.22;;;7.80;99.90;;;;;;4981810;28;99889;-72
2022/05/04 00:37:25;;;;;;;13.55;3.17;;;7.70;99.90;;;;;;4992651;28;20507;-72
2022/05/04 00:39:51;;;;;;;14.70;2.95;;;7.70;99.90;;;;;;4990035;28;205856;-73
2022/05/04 00:42:20;;;;;;;15.85;3.28;;;7.60;99.90;;;;;;4992512;28;20054;-74
2022/05/04 00:44:49;;;;;;;13.43;3.00;;;7.60;99.90;;;;;;4965302;28;147920;-74
2022/05/04 00:47:16;;;;;;;16.70;2.78;;;7.60;99.90;;;;;;4999219;28;20511;-73
2022/05/04 00:49:46;;;;;;;15.30;3.40;;;7.60;99.90;;;;;;4965217;28;179566;-72
2022/05/04 00:52:13;;;;;;;20.23;3.28;;;7.60;99.90;;;;;;4991026;28;20054;-73
2022/05/04 00:54:42;;;;;;;12.63;3.15;;;7.70;99.90;;;;;;4978108;28;26046;-73
2022/05/04 00:57:11;;;;;;;12.13;2.60;;;7.70;99.90;;;;;;5008994;28;20069;-75
2022/05/04 00:59:38;;;;;;;13.85;3.13;;;7.70;99.90;;;;;;4966060;28;118857;-73
2022/05/04 01:02:04;;;;;;;16.63;3.28;;;7.70;99.90;;;;;;5002794;28;20454;-73
2022/05/04 01:04:30;;;;;;;14.73;3.00;;;7.70;99.90;;;;;;4956610;28;138017;-74
2022/05/04 01:06:57;;;;;;;14.15;3.30;;;7.70;99.90;;;;;;5002252;28;20518;-73
2022/05/04 01:09:23;;;;;;;16.75;3.88;;;7.70;99.90;;;;;;4962740;28;57741;-73
2022/05/04 01:11:49;;;;;;;15.75;3.10;;;7.60;99.90;;;;;;4979369;28;20048;-72
2022/05/04 01:14:17;;;;;;;14.13;3.30;;;7.60;99.90;;;;;;4959970;28;203725;-75
2022/05/04 01:16:45;;;;;;;16.10;3.45;;;7.60;99.90;;;;;;4995291;28;20065;-74
2022/05/04 01:19:12;;;;;;;14.60;3.20;;;7.70;99.90;;;;;;4964852;28;216986;-74
2022/05/04 01:21:38;;;;;;;15.25;3.00;;;7.70;99.90;;;;;;5003815;28;20053;-74
2022/05/04 01:24:05;;;;;;;15.88;3.05;;;7.60;99.90;;;;;;4948632;28;236049;-72
2022/05/04 01:26:31;;;;;;;13.65;2.80;;;7.60;99.90;;;;;;5019502;28;20061;-73
2022/05/04 01:28:57;;;;;;;13.52;3.05;;;7.70;99.90;;;;;;4958214;28;20049;-73
2022/05/04 01:31:24;;;;;;;14.38;3.03;;;7.60;99.90;;;;;;5016399;28;20046;-73
2022/05/04 01:33:50;;;;;;;13.52;2.60;;;7.60;99.90;;;;;;4973913;28;20383;-73
2022/05/04 01:36:16;;;;;;;14.02;3.10;;;7.60;99.90;;;;;;4989912;28;28478;-73
2022/05/04 01:38:42;;;;;;;13.60;2.83;;;7.50;99.90;;;;;;4970914;28;20126;-73
2022/05/04 01:42:02;;;;;;;15.30;2.97;;;7.60;99.90;;;;;;5005328;28;100579;-73
2022/05/04 01:43:54;;;;;;;11.80;2.83;;;7.50;99.90;;;;;;4988433;28;73928;-72
2022/05/04 01:46:21;;;;;;;14.73;2.80;;;7.50;99.90;;;;;;4991668;28;20062;-73
2022/05/04 01:48:49;;;;;;;11.98;2.70;;;7.50;99.90;;;;;;4980984;28;20050;-73
2022/05/04 01:51:15;;;;;;;15.15;3.20;;;7.50;99.90;;;;;;4990870;28;61819;-76
2022/05/04 01:53:43;;;;;;;13.75;2.58;;;7.50;99.90;;;;;;4971870;28;20460;-73
2022/05/04 01:56:09;;;;;;;13.13;2.60;;;7.50;99.90;;;;;;5022841;28;44456;-73
2022/05/04 01:58:35;;;;;;;12.48;3.25;;;7.50;99.90;;;;;;4970449;28;20500;-72
2022/05/04 02:01:01;;;;;;;12.15;2.90;;;7.40;99.90;;;;;;5001816;28;20053;-73
2022/05/04 02:03:28;;;;;;;13.15;2.75;;;7.40;99.90;;;;;;4970212;28;20058;-74
2022/05/04 02:05:55;;;;;;;14.88;2.60;;;7.40;99.90;;;;;;5012026;28;131463;-73
2022/05/04 02:08:21;;;;;;;15.43;2.92;;;7.30;99.90;;;;;;4969244;28;20061;-73
2022/05/04 02:10:48;;;;;;;10.63;2.55;;;7.30;99.90;;;;;;5010632;28;58359;-72
2022/05/04 02:13:14;;;;;;;13.73;2.53;;;7.30;99.90;;;;;;5026355;28;20054;-72
2022/05/04 02:15:41;;;;;;;13.43;2.72;;;7.30;99.90;;;;;;4961194;28;128968;-73
2022/05/04 02:18:07;;;;;;;12.40;2.60;;;7.30;99.90;;;;;;5008337;28;20043;-74
2022/05/04 02:20:33;;;;;;;15.20;2.75;;;7.30;99.90;;;;;;4992159;28;200886;-73
2022/05/04 02:22:59;;;;;;;11.23;2.47;;;7.30;99.90;;;;;;4995458;28;20065;-74
2022/05/04 02:25:25;;;;;;;14.98;3.05;;;7.40;99.90;;;;;;4981236;28;20057;-74
2022/05/04 02:27:51;;;;;;;18.17;2.88;;;7.30;99.90;;;;;;5012080;28;20408;-74
2022/05/04 02:30:17;;;;;;;13.13;2.88;;;7.30;99.90;;;;;;5001511;28;28981;-75
2022/05/04 02:32:44;;;;;;;15.52;2.90;;;7.30;99.90;;;;;;4979321;28;20062;-73
2022/05/04 02:37:54;;;;;;;12.38;2.70;;;7.30;99.90;;;;;;5009916;28;20054;-75
2022/05/04 02:40:21;;;;;;;17.95;3.25;;;7.30;99.90;;;;;;4999711;28;20969;-73
2022/05/04 02:42:47;;;;;;;12.45;3.22;;;7.20;99.90;;;;;;4995797;28;20041;-72
2022/05/04 02:45:16;;;;;;;13.52;3.08;;;7.30;99.90;;;;;;4991407;28;90867;-73
2022/05/04 02:47:43;;;;;;;12.45;2.92;;;7.30;99.90;;;;;;5023096;28;20046;-74
2022/05/04 02:50:09;;;;;;;16.73;3.33;;;7.20;99.90;;;;;;4975945;28;115002;-75
2022/05/04 02:52:35;;;;;;;13.98;2.80;;;7.20;99.90;;;;;;5000131;28;20057;-73
2022/05/04 02:55:02;;;;;;;12.07;2.95;;;7.20;99.90;;;;;;4987431;28;164140;-73
2022/05/04 02:57:29;;;;;;;12.90;2.80;;;7.20;99.90;;;;;;5001210;28;20049;-72
2022/05/04 02:59:55;;;;;;;15.00;2.95;;;7.20;99.90;;;;;;4984256;28;161648;-72
2022/05/04 03:02:26;;;;;;;15.82;2.92;;;7.20;99.90;;;;;;5007852;28;20038;-73
2022/05/04 03:04:58;;;;;;;13.40;3.00;;;7.20;99.90;;;;;;4966330;28;165911;-72
2022/05/04 03:07:26;;;;;;;14.13;3.00;;;7.20;99.90;;;;;;5006261;28;20049;-76
2022/05/04 03:09:53;;;;;;;15.35;3.03;;;7.10;99.90;;;;;;4954368;28;94869;-73
2022/05/04 03:12:20;;;;;;;15.32;3.00;;;7.10;99.90;;;;;;4999045;28;20042;-73
2022/05/04 03:14:46;;;;;;;13.80;2.90;;;7.10;99.90;;;;;;4967619;28;162121;-73
2022/05/04 03:17:13;;;;;;;14.77;2.83;;;7.10;99.90;;;;;;4994072;28;20415;-73
2022/05/04 03:19:39;;;;;;;14.35;3.00;;;7.00;99.90;;;;;;4971298;28;204715;-73
2022/05/04 03:22:05;;;;;;;14.30;3.08;;;7.10;99.90;;;;;;4999787;28;20053;-72
2022/05/04 03:24:32;;;;;;;13.18;2.80;;;7.00;99.90;;;;;;4959945;28;250322;-74
2022/05/04 03:26:59;;;;;;;13.98;3.05;;;7.10;99.90;;;;;;4992760;28;20057;-71
2022/05/04 03:29:25;;;;;;;14.73;3.10;;;7.00;99.90;;;;;;4966478;28;20051;-73
2022/05/04 03:31:51;;;;;;;12.88;2.88;;;7.00;99.90;;;;;;5003676;28;20177;-72
2022/05/04 03:34:18;;;;;;;13.63;2.58;;;7.00;99.90;;;;;;4964801;28;21698;-73
2022/05/04 03:36:45;;;;;;;18.05;3.08;;;7.00;99.90;;;;;;5010900;28;20053;-73
2022/05/04 03:39:11;;;;;;;18.35;3.22;;;7.00;99.90;;;;;;4963074;28;42885;-73
2022/05/04 03:41:38;;;;;;;22.73;3.42;;;7.00;99.90;;;;;;5011066;28;20492;-73
2022/05/04 03:44:05;;;;;;;13.73;2.88;;;7.00;99.90;;;;;;4958361;28;193551;-73
2022/05/04 03:46:42;;;;;;;16.55;2.80;;;7.00;99.90;;;;;;5007943;28;20057;-73
2022/05/04 03:49:08;;;;;;;12.40;2.72;;;7.00;99.90;;;;;;4956386;28;185072;-76
2022/05/04 03:51:35;;;;;;;12.32;3.20;;;7.00;99.90;;;;;;5010063;28;20050;-74
2022/05/04 03:54:01;;;;;;;13.65;3.28;;;7.00;99.90;;;;;;4965168;28;154719;-74
2022/05/04 03:56:27;;;;;;;11.25;2.75;;;7.10;99.90;;;;;;5021587;28;20380;-74
2022/05/04 03:58:53;;;;;;;12.82;3.00;;;7.10;99.90;;;;;;4970365;28;20052;-74
2022/05/04 04:01:20;;;;;;;12.90;2.53;;;7.10;99.90;;;;;;5010695;28;271326;-73
2022/05/04 04:03:46;;;;;;;13.10;3.05;;;7.10;99.90;;;;;;4970441;28;20049;-73
2022/05/04 04:06:12;;;;;;;13.52;3.00;;;7.10;99.90;;;;;;5006455;28;124736;-72
2022/05/04 04:08:39;;;;;;;15.30;2.83;;;7.20;99.90;;;;;;4968510;28;20050;-73
2022/05/04 04:11:06;;;;;;;14.38;2.85;;;7.10;99.90;;;;;;5013780;28;242588;-74
2022/05/04 04:13:32;;;;;;;10.43;2.60;;;7.20;99.90;;;;;;4968010;28;20049;-74
2022/05/04 04:15:58;;;;;;;15.77;2.90;;;7.20;99.90;;;;;;4989434;28;46105;-73
2022/05/04 04:18:26;;;;;;;13.27;2.95;;;7.30;99.90;;;;;;4966600;28;20045;-72
2022/05/04 04:23:40;;;;;;;14.60;3.13;;;7.30;99.90;;;;;;4966370;28;20057;-73
2022/05/04 04:26:08;;;;;;;14.43;2.78;;;7.30;99.90;;;;;;4996931;28;231504;-73
2022/05/04 04:28:35;;;;;;;16.20;3.10;;;7.40;99.90;;;;;;4997256;28;20054;-73
2022/05/04 04:31:02;;;;;;;14.55;3.25;;;7.40;99.90;;;;;;4982233;28;250431;-73
2022/05/04 04:33:29;;;;;;;14.25;3.30;;;7.50;99.90;;;;;;4993720;28;20050;-73
2022/05/04 04:36:05;;;;;;;13.25;2.50;;;7.50;99.90;;;;;;4988695;28;158357;-72
2022/05/04 04:38:31;;;;;;;11.90;2.90;;;7.50;99.90;;;;;;4982309;28;20049;-73
2022/05/04 04:40:58;;;;;;;13.75;2.92;;;7.50;99.90;;;;;;5003425;28;126571;-73
2022/05/04 04:43:24;;;;;;;14.07;2.95;;;7.50;99.90;;;;;;4981512;28;20042;-73
2022/05/04 04:45:50;;;;;;;15.82;3.05;;;7.60;99.90;;;;;;5002606;28;120280;-72
2022/05/04 04:48:17;;;;;;;13.27;2.80;;;7.60;99.90;;;;;;4985603;28;20046;-72
2022/05/04 04:50:44;;;;;;;14.82;3.10;;;7.60;99.90;;;;;;4966389;28;220948;-72
2022/05/04 04:53:10;;;;;;;14.70;2.90;;;7.60;99.90;;;;;;4993145;28;20050;-73
2022/05/04 04:55:36;;;;;;;14.25;3.70;;;7.60;99.90;;;;;;4993645;28;23963;-73
2022/05/04 04:58:03;;;;;;;14.90;2.70;;;7.70;99.90;;;;;;5010446;28;20030;-73
2022/05/04 05:00:29;;;;;;;16.38;3.38;;;7.70;99.90;;;;;;4971577;28;203239;-72
2022/05/04 05:02:55;;;;;;;16.55;2.83;;;7.70;99.90;;;;;;5008152;28;20053;-72
2022/05/04 05:05:21;;;;;;;15.75;3.45;;;7.70;99.90;;;;;;4968975;28;167641;-73
2022/05/04 05:07:47;;;;;;;16.00;3.28;;;7.70;99.90;;;;;;5000714;28;20050;-73
2022/05/04 05:10:14;;;;;;;15.93;3.13;;;7.80;99.90;;;;;;4952902;28;109789;-74
2022/05/04 05:12:40;;;;;;;14.40;3.53;;;7.80;99.90;;;;;;4995589;28;20054;-74
2022/05/04 05:17:51;;;;;;;14.07;2.92;;;7.90;99.90;;;;;;4993139;28;20548;-72
2022/05/04 05:20:18;;;;;;;13.63;2.83;;;7.90;99.90;;;;;;4994168;28;224278;-73
2022/05/04 05:22:44;;;;;;;15.90;3.20;;;7.90;99.90;;;;;;4988891;28;20057;-73
2022/05/04 05:25:10;;;;;;;14.40;3.10;;;7.90;99.90;;;;;;4987901;28;50115;-74
2022/05/04 05:27:36;;;;;;;13.68;3.33;;;8.00;99.90;;;;;;4997388;28;20130;-74
2022/05/04 05:30:03;;;;;;;12.68;2.72;;;8.00;99.90;;;;;;4961707;28;72020;-73
2022/05/04 05:32:29;;;;;;;13.63;2.80;;;8.00;99.90;;;;;;4994741;28;20050;-74
2022/05/04 05:34:56;;;;;;;15.13;3.20;;;8.10;99.90;;;;;;4963482;28;245560;-74
2022/05/04 05:37:22;;;;;;;15.57;2.75;;;8.10;99.90;;;;;;4990722;28;20059;-74
2022/05/04 05:39:48;;;;;;;12.07;2.83;;;8.20;99.90;;;;;;4968846;28;109439;-72
2022/05/04 05:42:14;;;;;;;14.68;2.90;;;8.20;99.90;;;;;;4974779;28;20054;-72
2022/05/04 05:44:41;;;;;;;15.55;2.80;;;8.30;99.90;;;;;;4962604;28;231117;-73
2022/05/04 05:47:07;;;;;;;17.33;3.53;;;8.30;99.90;;;;;;4998153;28;20042;-73
2022/05/04 05:49:33;;;;;;;13.27;3.03;;;8.30;99.90;;;;;;4978228;28;201187;-74
2022/05/04 05:51:59;;;;;;;15.38;3.28;;;8.40;99.90;;;;;;5005132;28;20046;-72
2022/05/04 05:54:26;;;;;;;12.82;2.65;;;8.30;99.90;;;;;;4960502;28;249827;-73
2022/05/04 05:56:52;;;;;;;13.18;2.78;;;8.30;99.90;;;;;;5013268;28;20051;-73
2022/05/04 05:59:18;;;;;;;13.32;2.78;;;8.30;99.90;;;;;;4953280;28;140491;-73
2022/05/04 06:01:44;;;;;;;13.95;3.00;;;8.40;99.90;;;;;;5009794;28;20057;-73
2022/05/04 06:04:11;;;;;;;16.77;3.30;;;8.40;99.90;;;;;;4951025;28;157231;-73
2022/05/04 06:06:37;;;;;;;13.05;3.05;;;8.30;99.90;;;;;;4992196;28;20068;-73
2022/05/04 06:09:03;;;;;;;15.80;3.15;;;8.40;99.90;;;;;;4957171;28;119793;-73
2022/05/04 06:11:31;;;;;;;11.40;2.80;;;8.50;99.90;;;;;;5010843;28;20487;-72
2022/05/04 06:13:57;;;;;;;15.20;2.78;;;8.50;99.90;;;;;;4938347;28;154178;-72
2022/05/04 06:16:23;;;;;;;12.40;2.50;;;8.60;99.90;;;;;;5000351;28;20058;-72
2022/05/04 06:18:49;;;;;;;14.00;2.72;;;8.70;99.90;;;;;;4973467;28;20041;-76
2022/05/04 06:21:16;;;;;;;11.35;2.75;;;8.80;99.90;;;;;;5005588;28;76789;-74
2022/05/04 06:23:42;;;;;;;17.90;2.90;;;8.90;99.90;;;;;;5002333;28;20072;-75
2022/05/04 06:26:08;;;;;;;13.60;2.78;;;9.00;99.90;;;;;;5002388;28;143043;-73
2022/05/04 06:28:34;;;;;;;12.80;2.60;;;9.10;99.80;;;;;;4979378;28;20055;-73
2022/05/04 06:36:30;;;;;;;15.43;2.40;;;9.30;98.80;;;;;;4987589;28;20050;-73
2022/05/04 06:38:56;;;;;;;11.30;2.63;;;9.40;98.80;;;;;;4971936;28;284053;-74
2022/05/04 06:41:22;;;;;;;16.30;3.00;;;9.50;98.50;;;;;;5029942;28;20065;-74
2022/05/04 06:43:49;;;;;;;12.15;2.42;;;9.50;98.20;;;;;;4994935;28;20045;-75
2022/05/04 06:46:15;;;;;;;12.15;2.72;;;9.50;97.80;;;;;;5030643;28;218353;-73
2022/05/04 06:48:42;;;;;;;11.93;2.65;;;9.50;97.70;;;;;;5010533;28;20056;-73
2022/05/04 06:51:08;;;;;;;15.27;2.38;;;9.60;98.00;;;;;;5000209;28;226274;-72
2022/05/04 06:53:34;;;;;;;14.43;2.60;;;9.60;98.10;;;;;;4978777;28;20053;-73
2022/05/04 06:56:00;;;;;;;14.77;2.60;;;9.80;98.00;;;;;;5027094;28;20064;-73
2022/05/04 06:58:27;;;;;;;12.13;2.35;;;9.80;97.50;;;;;;4977898;28;20045;-74
2022/05/04 07:00:53;;;;;;;11.88;2.50;;;9.90;97.50;;;;;;5006036;28;196225;-74
2022/05/04 07:03:21;;;;;;;12.02;2.17;;;10.00;97.90;;;;;;4991649;28;20051;-74
2022/05/04 07:05:48;;;;;;;13.15;3.10;;;10.20;98.00;;;;;;4962663;28;132182;-74
2022/05/04 07:08:14;;;;;;;12.73;2.28;;;10.30;97.90;;;;;;4983102;28;20063;-74
2022/05/04 07:10:41;;;;;;;15.55;2.42;;;10.50;97.60;;;;;;4952070;28;219342;-73
2022/05/04 07:13:07;;;;;;;14.15;2.50;;;10.60;97.50;;;;;;5000017;28;20046;-74
2022/05/04 07:15:33;;;;;;;13.23;2.45;;;10.80;97.40;;;;;;4998017;28;192910;-73
2022/05/04 07:17:59;;;;;;;15.07;2.63;;;10.90;96.90;;;;;;5011978;28;20447;-73
2022/05/04 07:20:26;;;;;;;11.55;2.17;;;11.00;96.80;;;;;;4994835;28;193111;-76
2022/05/04 07:22:52;;;;;;;11.93;2.03;;;11.10;96.50;;;;;;5023000;28;20142;-73
2022/05/04 07:25:18;;;;;;;15.07;2.50;;;11.20;96.50;;;;;;4999607;28;77726;-74
2022/05/04 07:27:44;;;;;;;12.77;2.25;;;11.30;96.50;;;;;;4990889;28;20514;-73
2022/05/04 07:30:11;;;;;;;12.55;2.20;;;11.40;96.10;;;;;;4968420;28;23990;-73
2022/05/04 07:32:37;;;;;;;12.85;2.20;;;11.50;95.20;;;;;;4990168;28;20046;-73
2022/05/04 07:35:05;;;;;;;14.32;2.30;;;11.40;94.90;;;;;;4992069;28;24692;-74
2022/05/04 07:37:31;;;;;;;11.70;2.40;;;11.40;94.40;;;;;;4993501;28;20135;-73
2022/05/04 07:42:42;;;;;;;14.13;2.50;;;11.30;93.60;;;;;;5021652;28;20506;-74
2022/05/04 07:45:11;;;;;;;9.88;2.33;;;11.10;93.10;;;;;;4958971;28;245682;-74
2022/05/04 07:47:38;;;;;;;11.05;2.00;;;11.00;93.30;;;;;;4974910;28;20050;-73
2022/05/04 07:50:06;;;;;;;9.63;2.10;;;11.10;93.70;;;;;;4967817;28;57519;-73
2022/05/04 07:52:34;;;;;;;12.68;2.40;;;11.30;94.40;;;;;;4992804;28;20065;-73
2022/05/04 07:55:01;;;;;;;10.25;2.28;;;11.50;93.90;;;;;;4984701;28;252726;-76
2022/05/04 07:57:27;;;;;;;15.50;2.30;;;11.40;92.30;;;;;;4999860;28;20050;-74
2022/05/04 08:05:25;;;;;;;16.17;2.67;;;11.60;92.20;;;;;;4971925;28;221242;-76
2022/05/04 08:07:51;;;;;;;10.93;2.30;;;11.60;92.40;;;;;;4993456;28;20076;-74
2022/05/04 08:10:18;;;;;;;10.77;2.42;;;11.60;91.60;;;;;;4982045;28;20049;-73
2022/05/04 08:12:44;;;;;;;11.18;2.28;;;11.80;92.30;;;;;;4989297;28;20451;-74
2022/05/04 08:15:10;;;;;;;12.27;2.53;;;12.10;91.80;;;;;;4975771;28;116421;-74
2022/05/04 08:17:37;;;;;;;11.10;2.33;;;12.20;90.90;;;;;;4996484;28;20050;-74
2022/05/04 08:20:03;;;;;;;12.52;2.63;;;12.40;92.00;;;;;;4973294;28;222180;-74
2022/05/04 08:22:30;;;;;;;16.95;2.90;;;12.70;91.20;;;;;;5013367;28;20057;-74
2022/05/04 08:24:56;;;;;;;10.75;2.20;;;12.80;89.60;;;;;;4970947;28;219086;-74
2022/05/04 08:27:22;;;;;;;12.30;2.45;;;12.90;89.60;;;;;;4991704;28;20054;-74
2022/05/04 08:29:48;;;;;;;12.75;2.20;;;13.30;88.10;;;;;;4980036;28;40095;-74
2022/05/04 08:32:15;;;;;;;12.18;2.42;;;13.50;77.40;;;;;;4996752;28;20057;-74
2022/05/04 08:34:41;;;;;;;14.07;2.70;;;13.60;85.60;;;;;;4965020;28;235664;-74
2022/05/04 08:37:08;;;;;;;13.45;2.40;;;13.70;83.70;;;;;;5003261;28;20038;-74
2022/05/04 08:39:34;;;;;;;12.60;2.20;;;13.80;81.50;;;;;;4963241;28;197601;-75
2022/05/04 08:42:02;;;;;;;13.07;2.15;;;13.80;81.30;;;;;;5020849;28;20051;-74
2022/05/04 08:44:28;;;;;;;10.60;2.00;;;13.90;81.10;;;;;;4961161;28;211800;-74
2022/05/04 08:46:55;;;;;;;11.25;2.22;;;14.00;78.70;;;;;;5006524;28;20496;-73
2022/05/04 08:49:24;;;;;;;12.15;2.22;;;13.70;71.30;;;;;;4961809;28;148797;-74
2022/05/04 08:51:51;;;;;;;12.10;2.40;;;13.20;73.60;;;;;;5008201;28;20067;-73
2022/05/04 08:54:17;;;;;;;10.13;2.05;;;13.10;75.90;;;;;;4966905;28;20052;-74
2022/05/04 08:56:43;;;;;;;10.38;2.40;;;13.20;76.90;;;;;;4995076;28;20061;-75
2022/05/04 08:59:09;;;;;;;11.07;2.08;;;13.40;77.70;;;;;;4964079;28;27120;-74
2022/05/04 09:01:39;;;;;;;10.57;2.17;;;13.60;75.70;;;;;;5011793;28;20041;-75
2022/05/04 09:04:08;;;;;;;12.40;2.50;;;13.30;72.40;;;;;;4964813;28;211918;-75
2022/05/04 09:06:41;;;;;;;12.27;2.47;;;13.10;74.50;;;;;;5026159;28;20046;-74
2022/05/04 09:09:10;;;;;;;12.35;2.60;;;12.80;72.90;;;;;;4990687;28;20029;-74
2022/05/04 09:11:44;;;;;;;13.43;2.58;;;12.80;75.50;;;;;;5029816;28;20055;-74
2022/05/04 09:14:15;;;;;;;14.65;2.45;;;13.50;79.60;;;;;;4968952;28;147605;-75
2022/05/04 09:16:42;;;;;;;11.98;2.20;;;14.30;76.50;;;;;;5015085;28;20050;-74
2022/05/04 09:19:14;;;;;;;11.80;2.20;;;14.60;76.70;;;;;;4994902;28;22861;-75
2022/05/04 09:21:41;;;;;;;10.13;2.30;;;15.40;78.80;;;;;;5011156;28;20656;-74
2022/05/04 09:24:08;;;;;;;15.52;3.00;;;16.60;78.20;;;;;;4954911;28;238601;-74
2022/05/04 09:26:42;;;;;;;13.75;2.63;;;17.50;72.90;;;;;;5010296;28;20058;-74
2022/05/04 09:29:12;;;;;;;13.75;2.55;;;18.30;72.90;;;;;;4962703;28;66450;-75
2022/05/04 09:31:41;;;;;;;11.98;2.20;;;19.10;71.00;;;;;;4997794;28;20380;-75
2022/05/04 09:34:09;;;;;;;11.93;2.28;;;19.60;65.60;;;;;;4972625;28;203860;-75
2022/05/04 09:36:36;;;;;;;11.45;2.20;;;19.10;60.70;;;;;;4994209;28;20058;-75
2022/05/04 09:44:55;;;;;;;13.70;2.60;;;16.70;54.40;;;;;;4988410;28;34121;-74
2022/05/04 09:47:22;;;;;;;13.07;2.33;;;16.00;57.40;;;;;;4998442;28;20058;-74
2022/05/04 09:49:49;;;;;;;11.43;2.45;;;16.30;58.30;;;;;;4961858;28;200598;-74
2022/05/04 09:52:21;;;;;;;11.27;2.20;;;16.60;57.50;;;;;;4984576;28;20051;-75
2022/05/04 09:54:48;;;;;;;10.43;2.40;;;17.20;57.70;;;;;;4971704;28;136323;-75
2022/05/04 09:57:14;;;;;;;10.20;2.20;;;17.80;56.30;;;;;;5005283;28;20054;-74
2022/05/04 09:59:42;;;;;;;9.93;2.20;;;18.50;57.40;;;;;;4987867;28;156593;-74
2022/05/04 10:02:09;;;;;;;11.32;2.30;;;19.30;57.70;;;;;;5007393;28;20046;-74
2022/05/04 10:04:36;;;;;;;11.32;2.10;;;20.10;55.10;;;;;;4941860;28;166780;-74
2022/05/04 10:07:03;;;;;;;11.00;2.45;;;20.50;53.40;;;;;;4993728;28;20050;-75
2022/05/04 10:09:30;;;;;;;13.00;2.60;;;20.90;53.40;;;;;;4993386;28;21307;-73
2022/05/04 10:11:59;;;;;;;10.88;2.50;;;21.50;52.90;;;;;;5009286;28;20145;-73
2022/05/04 10:14:27;;;;;;;13.45;2.20;;;21.20;47.60;;;;;;4964516;28;146503;-74
2022/05/04 10:16:56;;;;;;;10.90;2.40;;;20.70;46.10;;;;;;5010747;28;20065;-73
2022/05/04 10:19:35;;;;;;;11.52;2.22;;;20.40;47.50;;;;;;4961104;28;72712;-74
2022/05/04 10:22:05;;;;;;;14.80;2.60;;;20.40;48.30;;;;;;5018385;28;20058;-75
2022/05/04 10:24:35;;;;;;;10.23;2.20;;;19.40;45.20;;;;;;4975807;28;110488;-75
2022/05/04 10:27:17;;;;;;;10.25;2.65;;;19.30;48.30;;;;;;5005344;28;20046;-74
2022/05/04 10:32:32;;;;;;;10.40;2.42;;;18.90;47.80;;;;;;5017034;28;20054;-74
2022/05/04 10:35:31;;;;;;;14.80;2.47;;;18.80;45.80;;;;;;4991712;28;37858;-75
2022/05/04 10:37:57;;;;;;;13.13;2.67;;;18.20;45.70;;;;;;5022447;28;20054;-74
2022/05/04 10:40:24;;;;;;;10.40;2.25;;;18.30;48.60;;;;;;4999520;28;30772;-73
2022/05/04 10:42:57;;;;;;;9.80;2.20;;;18.90;49.30;;;;;;4999264;28;20038;-74
2022/05/04 10:45:29;;;;;;;10.82;2.20;;;19.80;48.30;;;;;;4993001;28;210890;-74
2022/05/04 10:48:27;;;;;;;10.20;2.17;;;20.50;47.40;;;;;;4997313;28;20386;-74
2022/05/04 10:50:55;;;;;;;13.23;2.33;;;21.10;46.50;;;;;;4954552;28;51292;-75
2022/05/04 10:53:36;;;;;;;10.07;2.00;;;21.40;44.00;;;;;;4968306;28;20076;-74
2022/05/04 10:56:06;;;;;;;;;;;21.00;44.90;;;;;;4990159;28;224688;-75
2022/05/04 10:58:38;;;;;;;12.73;2.25;;;21.00;44.10;;;;;;4969886;28;19925;-74
2022/05/04 11:01:13;;;;;;;11.60;2.30;;;21.10;44.50;;;;;;5014575;28;51995;-77
2022/05/04 11:03:56;;;;;;;12.55;2.50;;;21.30;45.70;;;;;;4976048;28;20054;-74
2022/05/04 11:06:47;;;;;;;11.50;2.10;;;22.00;45.30;;;;;;4976244;28;118430;-75
2022/05/04 11:09:18;;;;;;;11.82;2.40;;;22.20;44.00;;;;;;4964924;28;194295;-75
2022/05/04 11:11:47;;;;;;;11.13;2.10;;;22.40;44.10;;;;;;4987315;28;20404;-74
2022/05/04 11:14:15;;;;;;;8.80;1.98;;;22.00;41.40;;;;;;4961727;28;120945;-75
2022/05/04 11:16:43;;;;;;;11.68;2.55;;;21.30;43.30;;;;;;4987389;28;20050;-74
2022/05/04 11:19:11;;;;;;;9.98;2.00;;;21.50;40.80;;;;;;4964505;28;20045;-77
2022/05/04 11:21:38;;;;;;;11.43;2.45;;;21.00;43.50;;;;;;5015519;28;20050;-75
2022/05/04 11:24:07;;;;;;;10.88;2.22;;;20.60;43.50;;;;;;4962856;28;176557;-74
2022/05/04 11:26:41;;;;;;;11.10;2.30;;;20.20;42.60;;;;;;5003716;28;20463;-75
2022/05/04 11:29:09;;;;;;;11.77;2.60;;;19.90;44.80;;;;;;4965150;28;217606;-77
2022/05/04 11:31:36;;;;;;;8.13;2.05;;;20.70;44.70;;;;;;5021744;28;20061;-74
2022/05/04 11:34:03;;;;;;;8.80;2.30;;;21.60;44.40;;;;;;4965517;28;236662;-74
2022/05/04 11:36:29;;;;;;;10.23;2.30;;;22.60;43.00;;;;;;5005339;28;20047;-74
2022/05/04 11:38:55;;;;;;;12.43;2.45;;;23.30;42.20;;;;;;4970932;28;153269;-72
2022/05/04 11:41:21;;;;;;;10.13;2.10;;;23.90;41.90;;;;;;5018641;28;20057;-74
2022/05/04 11:43:50;;;;;;;12.20;2.45;;;24.20;41.50;;;;;;4978078;28;20331;-74
2022/05/04 11:46:16;;;;;;;10.48;2.15;;;24.50;40.30;;;;;;5007350;28;195164;-74
2022/05/04 11:48:45;;;;;;;10.95;2.50;;;24.10;39.60;;;;;;4973414;28;20049;-75
2022/05/04 11:51:13;;;;;;;13.27;2.30;;;23.80;38.30;;;;;;5009370;28;268098;-75
2022/05/04 11:53:40;;;;;;;9.82;2.25;;;23.10;39.60;;;;;;4994538;28;20344;-74
2022/05/04 11:56:08;;;;;;;11.48;2.25;;;22.40;39.10;;;;;;5013719;28;155163;-75
2022/05/04 11:58:36;;;;;;;11.75;2.45;;;22.70;40.80;;;;;;5011328;28;20058;-75
2022/05/04 12:01:06;;;;;;;10.70;2.30;;;23.40;39.50;;;;;;4994404;28;45168;-75
2022/05/04 12:03:36;;;;;;;10.13;2.47;;;23.70;39.60;;;;;;4978927;28;20054;-74
2022/05/04 12:06:04;;;;;;;11.98;2.60;;;24.40;38.80;;;;;;5009514;28;106189;-74
2022/05/04 12:08:31;;;;;;;9.82;2.30;;;24.80;38.40;;;;;;5012941;28;20046;-75
2022/05/04 12:10:58;;;;;;;11.15;2.60;;;24.90;38.80;;;;;;5021747;28;63524;-75
2022/05/04 12:13:26;;;;;;;12.18;2.30;;;24.70;36.90;;;;;;4979207;28;20034;-75
2022/05/04 12:15:55;;;;;;;10.77;2.38;;;24.00;38.60;;;;;;5004664;28;200027;-75
2022/05/04 12:18:28;;;;;;;11.73;2.03;;;24.20;38.60;;;;;;4979528;28;20061;-75
2022/05/04 12:20:55;;;;;;;11.68;2.30;;;24.50;36.90;;;;;;4988610;28;250902;-76
2022/05/04 12:23:22;;;;;;;16.80;2.00;;;23.90;38.50;;;;;;4999443;28;20065;-77
2022/05/04 12:25:48;;;;;;;10.02;2.40;;;24.10;39.70;;;;;;4992827;28;54238;-74
2022/05/04 12:28:16;;;;;;;10.73;2.15;;;24.10;37.60;;;;;;5005740;28;20153;-76
2022/05/04 12:33:34;;;;;;;10.07;2.38;;;23.10;39.10;;;;;;4979834;28;20053;-74
2022/05/04 12:36:07;;;;;;;11.32;2.22;;;23.20;38.80;;;;;;5009366;28;34239;-76
2022/05/04 12:38:35;;;;;;;11.98;2.10;;;23.70;39.00;;;;;;4984113;28;20061;-76
2022/05/04 12:41:03;;;;;;;9.20;2.10;;;24.20;37.00;;;;;;5019914;28;213100;-76
2022/05/04 12:43:32;;;;;;;10.10;2.08;;;24.10;37.70;;;;;;5014003;28;20053;-75
2022/05/04 12:45:58;;;;;;;10.50;2.20;;;23.70;38.20;;;;;;5014831;28;22558;-77
2022/05/04 12:48:25;;;;;;;12.00;2.50;;;23.80;38.40;;;;;;4982135;28;20058;-76
2022/05/04 12:50:58;;;;;;;13.30;2.50;;;23.70;37.40;;;;;;5012551;28;71985;-76
2022/05/04 12:53:26;;;;;;;11.90;2.13;;;23.30;37.10;;;;;;4981696;28;20046;-75
2022/05/04 12:58:38;;;;;;;12.75;2.78;;;22.30;38.00;;;;;;4986016;28;20808;-75
2022/05/04 13:01:05;;;;;;;9.27;2.40;;;22.70;37.50;;;;;;5008242;28;95273;-78
2022/05/04 13:03:32;;;;;;;9.40;2.03;;;23.10;38.30;;;;;;4982820;28;20058;-75
2022/05/04 13:05:58;;;;;;;11.07;2.60;;;23.40;37.80;;;;;;5012379;28;145954;-75
2022/05/04 13:08:25;;;;;;;11.77;2.42;;;23.50;37.50;;;;;;4976802;28;20051;-75
2022/05/04 13:10:53;;;;;;;10.50;2.35;;;22.60;37.60;;;;;;5017730;28;236916;-76
2022/05/04 13:13:21;;;;;;;10.05;2.30;;;22.20;37.70;;;;;;5000815;28;20160;-75
2022/05/04 13:15:51;;;;;;;8.63;2.08;;;22.00;38.70;;;;;;5012124;28;119278;-74
2022/05/04 13:18:21;;;;;;;9.60;2.30;;;22.30;37.90;;;;;;4996850;28;20488;-75